createdAt,value
2018-11-03T00:00:46.805Z,9.75
2018-11-03T00:03:14.541Z,9.90
2018-11-03T00:05:42.309Z,9.10
2018-11-03T00:08:09.968Z,9.33
2018-11-03T00:10:37.702Z,10.50
2018-11-03T00:13:05.713Z,10.28
2018-11-03T00:15:33.548Z,9.58
2018-11-03T00:18:01.260Z,10.18
2018-11-03T00:20:29.030Z,8.80
2018-11-03T00:22:56.738Z,10.45
2018-11-03T00:25:24.535Z,11.43
2018-11-03T00:27:52.235Z,10.63
2018-11-03T00:30:19.986Z,11.03
2018-11-03T00:32:48.638Z,11.95
2018-11-03T00:35:16.376Z,10.10
2018-11-03T00:37:44.230Z,10.45
2018-11-03T00:40:13.986Z,9.90
2018-11-03T00:42:42.176Z,10.48
2018-11-03T00:45:10.916Z,11.40
2018-11-03T00:47:39.278Z,11.75
2018-11-03T00:50:08.069Z,10.70
2018-11-03T00:52:35.792Z,10.80
2018-11-03T00:55:03.829Z,10.48
2018-11-03T00:57:31.548Z,11.68
2018-11-03T00:59:59.262Z,10.55
2018-11-03T01:02:27.002Z,11.50
2018-11-03T01:04:54.911Z,10.75
2018-11-03T01:07:22.676Z,10.78
2018-11-03T01:09:50.474Z,11.30
2018-11-03T01:12:18.180Z,10.90
2018-11-03T01:14:45.891Z,13.30
2018-11-03T01:17:13.593Z,12.30
2018-11-03T01:19:41.340Z,10.90
2018-11-03T01:22:09.107Z,10.40
2018-11-03T01:24:36.849Z,12.07
2018-11-03T01:27:04.873Z,12.07
2018-11-03T01:29:32.633Z,12.07
2018-11-03T01:32:00.336Z,13.40
2018-11-03T01:34:28.052Z,12.40
2018-11-03T01:36:55.834Z,11.22
2018-11-03T01:39:23.577Z,12.63
2018-11-03T01:41:51.293Z,12.37
2018-11-03T01:44:18.993Z,12.28
2018-11-03T01:46:46.689Z,15.18
2018-11-03T01:49:14.403Z,12.63
2018-11-03T01:51:42.117Z,11.68
2018-11-03T01:54:09.821Z,13.03
2018-11-03T01:56:37.552Z,13.68
2018-11-03T01:59:05.366Z,12.85
2018-11-03T02:01:33.102Z,12.78
2018-11-03T02:04:00.872Z,12.47
2018-11-03T02:06:28.589Z,14.00
2018-11-03T02:08:56.317Z,14.87
2018-11-03T02:11:24.037Z,12.18
2018-11-03T02:13:51.813Z,12.23
2018-11-03T02:16:19.573Z,12.30
2018-11-03T02:18:47.281Z,14.40
2018-11-03T02:21:15.018Z,15.70
2018-11-03T02:23:42.729Z,13.93
2018-11-03T02:26:10.428Z,14.98
2018-11-03T02:28:38.142Z,23.47
2018-11-03T02:31:05.905Z,23.70
2018-11-03T02:33:33.653Z,15.80
2018-11-03T02:36:01.420Z,12.98
2018-11-03T02:38:29.152Z,11.40
2018-11-03T02:40:56.897Z,11.83
2018-11-03T02:43:24.656Z,11.63
2018-11-03T02:45:52.440Z,13.30
2018-11-03T02:48:20.128Z,12.55
2018-11-03T02:50:47.848Z,16.55
2018-11-03T02:53:15.573Z,12.23
2018-11-03T02:55:43.313Z,12.85
2018-11-03T02:58:11.017Z,11.30
2018-11-03T03:00:38.773Z,14.78
2018-11-03T03:03:06.464Z,18.67
2018-11-03T03:05:34.165Z,14.95
2018-11-03T03:08:01.862Z,11.90
2018-11-03T03:10:29.545Z,12.55
2018-11-03T03:12:57.250Z,11.10
2018-11-03T03:15:24.972Z,11.45
2018-11-03T03:17:52.711Z,11.40
2018-11-03T03:20:20.382Z,10.08
2018-11-03T03:22:48.118Z,12.03
2018-11-03T03:25:15.849Z,12.58
2018-11-03T03:27:43.560Z,11.10
2018-11-03T03:30:11.463Z,10.58
2018-11-03T03:32:39.444Z,10.00
2018-11-03T03:35:07.609Z,10.23
2018-11-03T03:37:35.344Z,10.38
2018-11-03T03:40:03.343Z,10.53
2018-11-03T03:42:31.096Z,10.50
2018-11-03T03:44:58.749Z,12.33
2018-11-03T03:47:26.441Z,11.20
2018-11-03T03:49:54.120Z,10.32
2018-11-03T03:52:21.826Z,10.48
2018-11-03T03:54:49.567Z,11.10
2018-11-03T03:57:17.249Z,10.68
2018-11-03T03:59:44.966Z,13.80
2018-11-03T04:02:12.648Z,11.40
2018-11-03T04:04:40.345Z,12.98
2018-11-03T04:07:08.026Z,9.83
2018-11-03T04:09:35.731Z,11.05
2018-11-03T04:12:03.534Z,11.97
2018-11-03T04:14:31.252Z,10.35
2018-11-03T04:16:58.951Z,10.50
2018-11-03T04:19:26.659Z,11.33
2018-11-03T04:21:54.361Z,11.20
2018-11-03T04:24:22.084Z,11.30
2018-11-03T04:26:49.794Z,9.63
2018-11-03T04:29:17.482Z,10.75
2018-11-03T04:31:45.172Z,11.80
2018-11-03T04:34:12.868Z,13.25
2018-11-03T04:36:40.598Z,11.53
2018-11-03T04:39:08.312Z,12.30
2018-11-03T04:41:36.033Z,11.22
2018-11-03T04:44:03.785Z,10.82
2018-11-03T04:46:31.473Z,12.58
2018-11-03T04:49:02.909Z,12.70
2018-11-03T04:51:31.853Z,13.48
2018-11-03T04:53:59.593Z,12.30
2018-11-03T04:56:27.405Z,13.55
2018-11-03T04:58:55.417Z,12.35
2018-11-03T05:01:23.138Z,11.50
2018-11-03T05:03:50.853Z,12.53
2018-11-03T05:06:18.622Z,10.85
2018-11-03T05:08:46.675Z,13.18
2018-11-03T05:11:14.365Z,13.00
2018-11-03T05:13:42.150Z,13.15
2018-11-03T05:16:09.854Z,13.20
2018-11-03T05:18:37.565Z,12.45
2018-11-03T05:21:05.636Z,13.60
2018-11-03T05:23:33.420Z,13.68
2018-11-03T05:26:01.109Z,12.30
2018-11-03T05:28:28.845Z,13.20
2018-11-03T05:30:56.550Z,12.95
2018-11-03T05:33:24.300Z,13.05
2018-11-03T05:35:51.973Z,13.03
2018-11-03T05:38:19.701Z,13.58
2018-11-03T05:40:47.401Z,12.93
2018-11-03T05:43:15.117Z,12.73
2018-11-03T05:45:42.833Z,13.20
2018-11-03T05:48:10.540Z,14.28
2018-11-03T05:50:38.248Z,13.68
2018-11-03T05:53:05.964Z,14.00
2018-11-03T05:55:33.681Z,14.18
2018-11-03T05:58:01.411Z,14.68
2018-11-03T06:00:29.097Z,13.05
2018-11-03T06:02:58.088Z,13.05
2018-11-03T06:05:25.821Z,15.60
2018-11-03T06:07:53.725Z,14.40
2018-11-03T06:10:21.453Z,14.23
2018-11-03T06:12:49.157Z,15.32
2018-11-03T06:15:17.095Z,14.43
2018-11-03T06:17:44.755Z,12.18
2018-11-03T06:20:12.469Z,14.40
2018-11-03T06:22:40.246Z,12.50
2018-11-03T06:25:08.493Z,13.20
2018-11-03T06:27:36.570Z,11.65
2018-11-03T06:30:05.924Z,12.30
2018-11-03T06:32:33.698Z,12.88
2018-11-03T06:35:01.477Z,12.88
2018-11-03T06:37:29.208Z,14.13
2018-11-03T06:39:56.928Z,12.43
2018-11-03T06:42:24.659Z,12.18
2018-11-03T06:44:52.370Z,12.80
2018-11-03T06:47:20.192Z,12.20
2018-11-03T06:49:47.837Z,12.82
2018-11-03T06:52:15.666Z,13.05
2018-11-03T06:54:43.260Z,12.68
2018-11-03T06:57:10.964Z,12.55
2018-11-03T06:59:38.653Z,11.22
2018-11-03T07:02:06.370Z,12.45
2018-11-03T07:04:34.069Z,14.78
2018-11-03T07:07:01.865Z,16.90
2018-11-03T07:09:29.549Z,17.98
2018-11-03T07:11:57.302Z,18.32
2018-11-03T07:14:24.956Z,15.90
2018-11-03T07:16:52.664Z,13.10
2018-11-03T07:19:20.373Z,12.93
2018-11-03T07:21:48.140Z,14.25
2018-11-03T07:24:15.801Z,12.53
2018-11-03T07:26:43.512Z,14.50
2018-11-03T07:29:11.201Z,12.35
2018-11-03T07:31:38.910Z,11.85
2018-11-03T07:34:06.704Z,13.65
2018-11-03T07:36:34.425Z,12.47
2018-11-03T07:39:02.144Z,17.30
2018-11-03T07:41:29.970Z,15.60
2018-11-03T07:43:57.572Z,12.75
2018-11-03T07:46:25.312Z,12.95
2018-11-03T07:48:53.177Z,12.20
2018-11-03T07:51:20.734Z,12.78
2018-11-03T07:53:48.521Z,13.15
2018-11-03T07:56:16.262Z,12.07
2018-11-03T07:58:43.961Z,13.80
2018-11-03T08:01:11.695Z,14.30
2018-11-03T08:03:39.463Z,13.43
2018-11-03T08:06:07.193Z,11.18
2018-11-03T08:08:34.885Z,9.88
2018-11-03T08:11:02.596Z,11.35
2018-11-03T08:13:30.297Z,11.28
2018-11-03T08:15:58.054Z,10.50
2018-11-03T08:18:25.752Z,13.07
2018-11-03T08:20:53.498Z,10.17
2018-11-03T08:23:21.490Z,11.87
2018-11-03T08:25:49.220Z,11.17
2018-11-03T08:28:16.912Z,12.57
2018-11-03T08:30:44.634Z,11.97
2018-11-03T08:33:12.385Z,10.10
2018-11-03T08:35:40.085Z,12.05
2018-11-03T08:38:07.805Z,12.98
2018-11-03T08:40:35.502Z,12.20
2018-11-03T08:43:03.222Z,11.55
2018-11-03T08:45:30.888Z,12.58
2018-11-03T08:47:58.690Z,11.50
2018-11-03T08:50:26.387Z,12.28
2018-11-03T08:52:54.172Z,11.03
2018-11-03T08:55:21.917Z,13.13
2018-11-03T08:57:49.652Z,13.05
2018-11-03T09:00:17.462Z,12.50
2018-11-03T09:02:45.158Z,12.93
2018-11-03T09:05:12.865Z,13.50
2018-11-03T09:07:40.716Z,13.22
2018-11-03T09:10:10.652Z,12.40
2018-11-03T09:12:38.433Z,11.35
2018-11-03T09:15:07.957Z,11.30
2018-11-03T09:17:36.525Z,12.53
2018-11-03T09:20:05.157Z,12.27
2018-11-03T09:22:32.884Z,10.55
2018-11-03T09:25:00.586Z,12.30
2018-11-03T09:27:28.355Z,10.87
2018-11-03T09:29:56.060Z,11.03
2018-11-03T09:32:23.773Z,11.93
2018-11-03T09:34:51.573Z,11.93
2018-11-03T09:37:19.203Z,13.38
2018-11-03T09:39:46.905Z,12.30
2018-11-03T09:42:14.631Z,14.25
2018-11-03T09:44:42.342Z,14.07
2018-11-03T09:47:10.101Z,13.43
2018-11-03T09:49:37.828Z,17.43
2018-11-03T09:52:05.625Z,14.57
2018-11-03T09:54:33.350Z,19.90
2018-11-03T09:57:01.066Z,19.33
2018-11-03T09:59:28.777Z,18.50
2018-11-03T10:01:56.512Z,15.80
2018-11-03T10:04:24.211Z,11.40
2018-11-03T10:06:51.936Z,14.00
2018-11-03T10:09:19.637Z,15.30
2018-11-03T10:11:47.363Z,13.10
2018-11-03T10:14:15.086Z,13.60
2018-11-03T10:16:42.808Z,13.17
2018-11-03T10:19:10.539Z,15.07
2018-11-03T10:21:38.258Z,13.57
2018-11-03T10:24:05.948Z,16.33
2018-11-03T10:26:33.720Z,17.30
2018-11-03T10:29:01.438Z,14.23
2018-11-03T10:31:29.234Z,14.37
2018-11-03T10:33:56.958Z,14.97
2018-11-03T10:36:24.663Z,14.13
2018-11-03T10:38:52.424Z,14.60
2018-11-03T10:41:20.117Z,15.37
2018-11-03T10:43:47.864Z,14.93
2018-11-03T10:46:15.673Z,14.20
2018-11-03T10:48:43.361Z,14.50
2018-11-03T10:51:11.084Z,18.63
2018-11-03T10:53:38.900Z,15.13
2018-11-03T10:56:06.591Z,14.43
2018-11-03T10:58:34.328Z,13.80
2018-11-03T11:01:07.583Z,15.03
2018-11-03T11:03:40.835Z,14.83
2018-11-03T11:06:14.157Z,14.20
2018-11-03T11:08:47.679Z,15.03
2018-11-03T11:11:21.065Z,16.37
2018-11-03T11:13:48.795Z,15.20
2018-11-03T11:16:16.550Z,15.73
2018-11-03T11:18:44.245Z,14.80
2018-11-03T11:21:11.996Z,15.93
2018-11-03T11:23:39.802Z,13.10
2018-11-03T11:26:07.470Z,14.20
2018-11-03T11:28:35.191Z,14.03
2018-11-03T11:31:02.928Z,14.50
2018-11-03T11:33:30.662Z,9.30
2018-11-03T11:35:58.386Z,9.57
2018-11-03T11:38:26.118Z,11.27
2018-11-03T11:40:53.815Z,12.20
2018-11-03T11:43:21.570Z,10.83
2018-11-03T11:45:49.345Z,9.90
2018-11-03T11:48:17.096Z,9.63
2018-11-03T11:50:44.812Z,10.00
2018-11-03T11:53:12.541Z,11.10
2018-11-03T11:55:40.278Z,11.33
2018-11-03T11:58:08.035Z,10.37
2018-11-03T12:00:35.780Z,10.93
2018-11-03T12:03:03.521Z,10.23
2018-11-03T12:05:31.235Z,10.30
2018-11-03T12:07:58.959Z,9.70
2018-11-03T12:10:26.658Z,10.80
2018-11-03T12:12:54.422Z,8.40
2018-11-03T12:15:22.149Z,10.10
2018-11-03T12:17:49.873Z,10.40
2018-11-03T12:20:17.646Z,9.50
2018-11-03T12:22:45.372Z,10.30
2018-11-03T12:25:13.077Z,9.50
2018-11-03T12:27:40.875Z,9.63
2018-11-03T12:30:11.970Z,9.33
2018-11-03T12:32:40.087Z,8.57
2018-11-03T12:35:07.852Z,8.20
2018-11-03T12:37:36.058Z,9.07
2018-11-03T12:40:04.166Z,8.10
2018-11-03T12:42:31.937Z,9.23
2018-11-03T12:44:59.656Z,10.70
2018-11-03T12:47:27.469Z,10.73
2018-11-03T12:50:00.235Z,10.13
2018-11-03T12:52:29.245Z,11.40
2018-11-03T12:54:57.004Z,8.30
2018-11-03T12:57:24.722Z,9.80
2018-11-03T12:59:52.433Z,10.77
2018-11-03T13:02:20.147Z,10.13
2018-11-03T13:04:47.954Z,7.47
2018-11-03T13:07:15.633Z,8.43
2018-11-03T13:09:43.514Z,9.20
2018-11-03T13:12:11.156Z,6.93
2018-11-03T13:14:38.813Z,6.73
2018-11-03T13:17:06.537Z,6.70
2018-11-03T13:19:34.272Z,7.10
2018-11-03T13:22:01.972Z,10.07
2018-11-03T13:24:29.715Z,7.60
2018-11-03T13:26:57.428Z,7.10
2018-11-03T13:29:25.167Z,8.40
2018-11-03T13:31:52.960Z,8.60
2018-11-03T13:34:20.672Z,7.57
2018-11-03T13:36:48.393Z,6.83
2018-11-03T13:39:16.084Z,6.03
2018-11-03T13:41:43.812Z,7.40
2018-11-03T13:44:11.537Z,6.10
2018-11-03T13:46:39.272Z,7.20
2018-11-03T13:49:07.018Z,6.53
2018-11-03T13:51:34.741Z,7.50
2018-11-03T13:54:02.462Z,6.33
2018-11-03T13:56:30.396Z,5.70
2018-11-03T13:58:58.093Z,5.60
2018-11-03T14:01:25.838Z,5.90
2018-11-03T14:03:53.539Z,6.57
2018-11-03T14:06:21.261Z,6.50
2018-11-03T14:08:49.054Z,6.63
2018-11-03T14:11:16.840Z,6.73
2018-11-03T14:13:44.524Z,6.20
2018-11-03T14:16:12.305Z,6.67
2018-11-03T14:18:40.265Z,6.60
2018-11-03T14:21:07.975Z,5.10
2018-11-03T14:23:35.792Z,5.47
2018-11-03T14:26:03.531Z,6.07
2018-11-03T14:28:31.317Z,7.40
2018-11-03T14:30:59.041Z,5.47
2018-11-03T14:33:26.834Z,12.23
2018-11-03T14:35:54.509Z,8.63
2018-11-03T14:38:22.246Z,5.90
2018-11-03T14:40:56.522Z,6.77
2018-11-03T14:43:24.210Z,7.90
2018-11-03T14:45:51.963Z,7.17
2018-11-03T14:48:19.666Z,6.30
2018-11-03T14:50:47.486Z,5.03
2018-11-03T14:53:15.222Z,5.90
2018-11-03T14:55:42.964Z,6.57
2018-11-03T14:58:10.707Z,6.13
2018-11-03T15:00:38.537Z,5.73
2018-11-03T15:03:07.023Z,6.90
2018-11-03T15:05:34.741Z,7.90
2018-11-03T15:08:02.502Z,7.50
2018-11-03T15:10:30.197Z,6.30
2018-11-03T15:12:57.928Z,6.87
2018-11-03T15:15:25.649Z,6.57
2018-11-03T15:18:00.062Z,9.07
2018-11-03T15:20:27.752Z,6.00
2018-11-03T15:22:55.489Z,5.83
2018-11-03T15:25:23.184Z,6.13
2018-11-03T15:27:50.884Z,6.53
2018-11-03T15:30:18.575Z,5.97
2018-11-03T15:32:46.309Z,5.87
2018-11-03T15:35:14.042Z,6.12
2018-11-03T15:37:41.753Z,5.08
2018-11-03T15:40:11.479Z,8.23
2018-11-03T15:42:39.241Z,5.75
2018-11-03T15:45:09.360Z,5.10
2018-11-03T15:47:37.108Z,5.25
2018-11-03T15:50:05.749Z,5.17
2018-11-03T15:52:33.493Z,4.92
2018-11-03T15:55:01.231Z,4.70
2018-11-03T15:57:28.917Z,5.65
2018-11-03T15:59:56.649Z,13.62
2018-11-03T16:02:24.437Z,6.80
2018-11-03T16:04:52.148Z,4.45
2018-11-03T16:07:19.871Z,7.40
2018-11-03T16:09:47.597Z,6.00
2018-11-03T16:12:15.377Z,5.55
2018-11-03T16:14:43.061Z,5.20
2018-11-03T16:17:10.765Z,7.05
2018-11-03T16:19:38.541Z,6.00
2018-11-03T16:22:06.318Z,5.80
2018-11-03T16:24:34.047Z,5.53
2018-11-03T16:27:01.770Z,8.25
2018-11-03T16:29:29.532Z,8.63
2018-11-03T16:31:57.291Z,7.00
2018-11-03T16:34:24.980Z,13.93
2018-11-03T16:36:52.681Z,6.25
2018-11-03T16:39:20.409Z,4.35
2018-11-03T16:41:48.132Z,22.05
2018-11-03T16:44:16.025Z,11.95
2018-11-03T16:46:43.739Z,5.53
2018-11-03T16:49:12.130Z,6.95
2018-11-03T16:51:39.846Z,5.45
2018-11-03T16:54:07.565Z,4.80
2018-11-03T16:56:35.276Z,5.25
2018-11-03T16:59:02.977Z,5.85
2018-11-03T17:01:30.692Z,6.50
2018-11-03T17:03:58.399Z,5.58
2018-11-03T17:06:26.113Z,5.45
2018-11-03T17:08:53.804Z,5.00
2018-11-03T17:11:21.526Z,4.85
2018-11-03T17:13:49.215Z,7.15
2018-11-03T17:16:16.938Z,6.67
2018-11-03T17:18:44.740Z,6.05
2018-11-03T17:21:15.297Z,13.93
2018-11-03T17:23:43.102Z,7.12
2018-11-03T17:26:10.839Z,5.75
2018-11-03T17:28:38.536Z,5.50
2018-11-03T17:31:06.534Z,5.92
2018-11-03T17:33:34.237Z,7.00
2018-11-03T17:36:01.960Z,6.10
2018-11-03T17:38:29.739Z,5.55
2018-11-03T17:40:57.636Z,6.03
2018-11-03T17:43:25.417Z,6.00
2018-11-03T17:45:53.141Z,6.40
2018-11-03T17:48:20.872Z,7.03
2018-11-03T17:50:48.637Z,6.60
2018-11-03T17:53:16.369Z,6.55
2018-11-03T17:55:44.158Z,7.03
2018-11-03T17:58:11.856Z,7.50
2018-11-03T18:00:39.647Z,8.20
2018-11-03T18:03:07.284Z,9.08
2018-11-03T18:05:35.005Z,9.28
2018-11-03T18:08:02.768Z,8.43
2018-11-03T18:10:30.501Z,9.18
2018-11-03T18:12:58.276Z,7.80
2018-11-03T18:15:26.004Z,7.67
2018-11-03T18:17:53.737Z,6.85
2018-11-03T18:20:21.432Z,8.55
2018-11-03T18:22:49.152Z,8.13
2018-11-03T18:25:16.868Z,7.25
2018-11-03T18:27:44.611Z,6.90
2018-11-03T18:30:12.982Z,6.70
2018-11-03T18:32:41.260Z,6.75
2018-11-03T18:35:09.210Z,6.95
2018-11-03T18:37:37.019Z,6.45
2018-11-03T18:40:05.730Z,40.00
2018-11-03T18:42:33.462Z,9.40
2018-11-03T18:45:01.209Z,8.03
2018-11-03T18:47:28.913Z,6.83
2018-11-03T18:49:56.639Z,6.15
2018-11-03T18:52:24.377Z,7.62
2018-11-03T18:54:52.137Z,6.70
2018-11-03T18:57:19.968Z,7.40
2018-11-03T18:59:47.815Z,7.85
2018-11-03T19:02:15.547Z,7.45
2018-11-03T19:04:43.315Z,7.00
2018-11-03T19:07:11.013Z,6.17
2018-11-03T19:09:38.730Z,7.12
2018-11-03T19:12:06.858Z,7.70
2018-11-03T19:14:34.989Z,10.53
2018-11-03T19:17:02.744Z,8.18
2018-11-03T19:19:30.445Z,9.43
2018-11-03T19:21:59.184Z,8.70
2018-11-03T19:24:27.769Z,8.88
2018-11-03T19:26:56.738Z,9.48
2018-11-03T19:29:24.528Z,9.30
2018-11-03T19:31:52.274Z,9.35
2018-11-03T19:34:19.997Z,9.65
2018-11-03T19:36:47.717Z,10.08
2018-11-03T19:39:15.439Z,13.72
2018-11-03T19:41:43.250Z,10.35
2018-11-03T19:44:10.929Z,9.90
2018-11-03T19:46:38.643Z,8.13
2018-11-03T19:49:06.549Z,10.75
2018-11-03T19:51:34.330Z,10.03
2018-11-03T19:54:02.022Z,10.40
2018-11-03T19:56:29.763Z,11.88
2018-11-03T19:58:57.477Z,10.93
2018-11-03T20:01:25.197Z,13.28
2018-11-03T20:03:52.923Z,11.30
2018-11-03T20:06:20.629Z,11.57
2018-11-03T20:08:48.422Z,13.88
2018-11-03T20:11:16.130Z,13.70
2018-11-03T20:13:43.915Z,12.58
2018-11-03T20:16:11.612Z,11.28
2018-11-03T20:18:39.328Z,10.95
2018-11-03T20:21:07.043Z,11.48
2018-11-03T20:23:34.765Z,10.30
2018-11-03T20:26:02.550Z,9.05
2018-11-03T20:28:30.240Z,10.65
2018-11-03T20:30:57.958Z,8.80
2018-11-03T20:33:25.677Z,9.43
2018-11-03T20:35:53.404Z,10.20
2018-11-03T20:38:21.134Z,10.05
2018-11-03T20:40:48.859Z,9.98
2018-11-03T20:43:16.592Z,11.70
2018-11-03T20:45:44.319Z,9.95
2018-11-03T20:48:12.046Z,11.45
2018-11-03T20:50:39.751Z,21.23
2018-11-03T20:53:07.505Z,15.88
2018-11-03T20:55:35.249Z,10.65
2018-11-03T20:58:02.942Z,10.53
2018-11-03T21:00:30.653Z,11.65
2018-11-03T21:02:58.349Z,10.75
2018-11-03T21:05:26.091Z,10.38
2018-11-03T21:07:53.871Z,11.30
2018-11-03T21:10:21.605Z,12.25
2018-11-03T21:12:49.313Z,14.58
2018-11-03T21:15:17.055Z,13.25
2018-11-03T21:17:44.750Z,13.50
2018-11-03T21:20:12.479Z,13.95
2018-11-03T21:22:40.242Z,14.15
2018-11-03T21:25:07.993Z,11.75
2018-11-03T21:27:35.745Z,11.45
2018-11-03T21:30:05.332Z,12.88
2018-11-03T21:32:33.027Z,12.68
2018-11-03T21:35:00.729Z,14.33
2018-11-03T21:37:28.470Z,12.30
2018-11-03T21:39:56.249Z,13.62
2018-11-03T21:42:23.968Z,17.92
2018-11-03T21:44:51.685Z,12.18
2018-11-03T21:47:19.453Z,13.98
2018-11-03T21:49:47.178Z,12.65
2018-11-03T21:52:16.874Z,13.45
2018-11-03T21:54:44.614Z,14.75
2018-11-03T21:57:12.381Z,15.40
2018-11-03T21:59:40.142Z,13.90
2018-11-03T22:02:07.869Z,14.33
2018-11-03T22:04:35.609Z,17.77
2018-11-03T22:07:03.342Z,14.28
2018-11-03T22:09:31.029Z,18.25
2018-11-03T22:11:58.756Z,28.20
2018-11-03T22:14:26.476Z,13.93
2018-11-03T22:16:54.184Z,15.03
2018-11-03T22:19:21.880Z,14.07
2018-11-03T22:21:49.666Z,13.88
2018-11-03T22:24:17.303Z,14.35
2018-11-03T22:26:45.029Z,12.93
2018-11-03T22:29:12.736Z,12.35
2018-11-03T22:31:40.462Z,14.90
2018-11-03T22:34:08.227Z,14.28
2018-11-03T22:36:36.004Z,14.85
2018-11-03T22:39:05.190Z,16.23
2018-11-03T22:41:32.931Z,18.57
2018-11-03T22:44:00.649Z,13.15
2018-11-03T22:46:28.370Z,20.02
2018-11-03T22:48:56.086Z,15.10
2018-11-03T22:51:23.846Z,15.50
2018-11-03T22:53:51.535Z,14.95
2018-11-03T22:56:19.434Z,12.28
2018-11-03T22:58:47.187Z,12.60
2018-11-03T23:01:14.932Z,14.47
2018-11-03T23:03:42.682Z,17.57
2018-11-03T23:06:10.389Z,21.87
2018-11-03T23:08:38.136Z,15.98
2018-11-03T23:11:05.863Z,14.78
2018-11-03T23:13:33.633Z,13.43
2018-11-03T23:16:01.351Z,13.70
2018-11-03T23:18:29.133Z,13.60
2018-11-03T23:20:56.845Z,15.95
2018-11-03T23:23:24.568Z,13.35
2018-11-03T23:25:52.268Z,11.00
2018-11-03T23:28:19.996Z,14.45
2018-11-03T23:30:47.673Z,19.05
2018-11-03T23:33:15.373Z,18.50
2018-11-03T23:35:43.121Z,17.25
2018-11-03T23:38:10.907Z,20.40
2018-11-03T23:40:38.593Z,15.28
2018-11-03T23:43:06.314Z,14.45
2018-11-03T23:45:34.059Z,14.75
2018-11-03T23:48:01.774Z,16.52
2018-11-03T23:50:29.575Z,13.65
2018-11-03T23:52:57.235Z,15.58
2018-11-03T23:55:25.105Z,16.02
2018-11-03T23:57:52.804Z,15.40
